createdAt,value
2023-07-18T00:04:26.812Z,43.21
2023-07-18T00:09:28.615Z,41.06
2023-07-18T00:14:31.078Z,41.41
2023-07-18T00:19:34.429Z,39.85
2023-07-18T00:24:36.255Z,40.65
2023-07-18T00:29:38.075Z,41.96
2023-07-18T00:34:42.013Z,40.99
2023-07-18T00:39:43.827Z,41.77
2023-07-18T00:44:45.550Z,42.76
2023-07-18T00:49:47.702Z,42.20
2023-07-18T00:54:49.669Z,41.12
2023-07-18T00:59:52.118Z,41.28
2023-07-18T01:04:53.908Z,43.19
2023-07-18T01:10:13.700Z,42.08
2023-07-18T01:15:15.451Z,49.28
2023-07-18T01:20:24.869Z,49.89
2023-07-18T01:25:27.902Z,46.70
2023-07-18T01:30:31.393Z,44.71
2023-07-18T01:35:33.714Z,42.73
2023-07-18T01:40:35.547Z,44.08
2023-07-18T01:45:38.588Z,42.04
2023-07-18T01:50:40.333Z,45.25
2023-07-18T01:55:42.687Z,42.70
2023-07-18T02:00:44.538Z,41.48
2023-07-18T02:05:46.299Z,42.22
2023-07-18T02:10:48.095Z,41.73
2023-07-18T02:15:50.031Z,41.23
2023-07-18T02:20:51.772Z,42.27
2023-07-18T02:25:54.299Z,41.66
2023-07-18T02:30:56.423Z,41.34
2023-07-18T02:35:58.270Z,41.91
2023-07-18T02:41:00.183Z,40.86
2023-07-18T02:46:02.032Z,40.95
2023-07-18T02:51:03.899Z,41.31
2023-07-18T02:56:05.809Z,41.58
2023-07-18T03:01:09.217Z,43.00
2023-07-18T03:06:10.960Z,42.71
2023-07-18T03:11:12.881Z,43.08
2023-07-18T03:16:14.751Z,42.20
2023-07-18T03:21:17.883Z,41.84
2023-07-18T03:26:19.914Z,41.18
2023-07-18T03:31:22.114Z,40.94
2023-07-18T03:36:24.140Z,41.42
2023-07-18T03:41:26.013Z,41.94
2023-07-18T03:46:27.771Z,43.24
2023-07-18T03:51:31.079Z,45.14
2023-07-18T03:56:39.388Z,42.54
2023-07-18T04:01:41.135Z,43.48
2023-07-18T04:06:45.085Z,45.35
2023-07-18T04:11:47.470Z,46.24
2023-07-18T04:16:49.247Z,47.60
2023-07-18T04:21:50.976Z,43.76
2023-07-18T04:26:52.712Z,43.90
2023-07-18T04:31:55.108Z,45.24
2023-07-18T04:36:56.933Z,47.05
2023-07-18T04:41:58.761Z,47.03
2023-07-18T04:47:00.601Z,48.16
2023-07-18T04:52:02.376Z,49.47
2023-07-18T04:57:06.658Z,48.53
2023-07-18T05:02:08.917Z,49.63
2023-07-18T05:07:10.630Z,49.51
2023-07-18T05:12:12.435Z,49.19
2023-07-18T05:17:14.506Z,46.00
2023-07-18T05:22:16.269Z,46.44
2023-07-18T05:27:19.039Z,48.25
2023-07-18T05:32:20.991Z,48.73
2023-07-18T05:37:26.019Z,48.18
2023-07-18T05:42:27.765Z,49.12
2023-07-18T05:47:30.053Z,47.30
2023-07-18T05:52:32.090Z,48.20
2023-07-18T05:57:33.995Z,48.25
2023-07-18T06:02:36.118Z,47.99
2023-07-18T06:07:38.029Z,46.25
2023-07-18T06:12:39.921Z,46.03
2023-07-18T06:17:41.689Z,46.08
2023-07-18T06:22:45.449Z,46.78
2023-07-18T06:27:47.476Z,46.30
2023-07-18T06:32:49.345Z,45.68
2023-07-18T06:37:51.530Z,46.06
2023-07-18T06:42:53.343Z,44.72
2023-07-18T06:47:55.109Z,45.14
2023-07-18T06:52:56.921Z,42.39
2023-07-18T06:57:58.656Z,44.21
2023-07-18T07:03:00.574Z,43.30
2023-07-18T07:08:02.366Z,43.17
2023-07-18T07:13:04.917Z,44.07
2023-07-18T07:18:07.361Z,42.79
2023-07-18T07:23:09.181Z,42.62
2023-07-18T07:28:11.047Z,41.89
2023-07-18T07:33:13.359Z,41.27
2023-07-18T07:38:16.250Z,41.40
2023-07-18T07:43:18.157Z,40.69
2023-07-18T07:48:19.918Z,41.83
2023-07-18T07:53:21.700Z,41.29
2023-07-18T07:58:23.414Z,41.33
2023-07-18T08:03:25.162Z,40.16
2023-07-18T08:08:26.931Z,41.37
2023-07-18T08:13:29.516Z,40.00
2023-07-18T08:18:31.281Z,39.34
2023-07-18T08:23:33.016Z,39.64
2023-07-18T08:28:34.768Z,39.61
2023-07-18T08:33:36.518Z,40.48
2023-07-18T08:38:38.508Z,39.32
2023-07-18T08:43:40.282Z,37.98
2023-07-18T08:48:46.061Z,38.65
2023-07-18T08:53:47.872Z,37.80
2023-07-18T08:58:49.806Z,38.03
2023-07-18T09:03:53.103Z,38.25
2023-07-18T09:08:59.340Z,37.63
2023-07-18T09:14:01.207Z,36.79
2023-07-18T09:19:03.971Z,37.34
2023-07-18T09:24:06.048Z,36.96
2023-07-18T09:29:12.237Z,36.73
2023-07-18T09:34:14.047Z,35.94
2023-07-18T09:39:15.846Z,34.98
2023-07-18T09:44:31.294Z,35.93
2023-07-18T09:54:44.786Z,37.15
2023-07-18T09:59:50.044Z,36.43
2023-07-18T10:04:51.901Z,36.63
2023-07-18T10:09:53.828Z,36.72
2023-07-18T10:15:01.028Z,36.89
2023-07-18T10:20:34.088Z,38.56
2023-07-18T10:25:39.313Z,38.29
2023-07-18T10:30:45.826Z,36.96
2023-07-18T10:35:49.325Z,38.25
2023-07-18T10:40:53.727Z,36.21
2023-07-18T10:45:55.573Z,35.20
2023-07-18T10:50:57.432Z,34.11
2023-07-18T10:55:59.156Z,34.67
2023-07-18T11:06:23.043Z,37.96
2023-07-18T11:11:24.708Z,37.29
2023-07-18T11:16:26.509Z,36.10
2023-07-18T11:21:29.302Z,35.82
2023-07-18T11:26:33.153Z,35.92
2023-07-18T11:31:43.632Z,37.12
2023-07-18T11:36:48.298Z,35.63
2023-07-18T11:41:52.980Z,36.24
2023-07-18T11:46:56.293Z,36.64
2023-07-18T11:51:58.171Z,36.33
2023-07-18T11:56:59.889Z,36.07
2023-07-18T12:02:02.826Z,35.57
2023-07-18T12:07:04.932Z,34.06
2023-07-18T12:12:07.041Z,35.19
2023-07-18T12:17:09.728Z,34.81
2023-07-18T12:22:14.540Z,34.61
2023-07-18T12:27:16.572Z,35.24
2023-07-18T12:32:18.268Z,34.88
2023-07-18T12:37:20.797Z,35.54
2023-07-18T12:42:22.468Z,35.13
2023-07-18T12:47:24.172Z,36.07
2023-07-18T12:52:25.884Z,34.77
2023-07-18T12:57:29.575Z,34.96
2023-07-18T13:02:33.206Z,34.82
2023-07-18T13:07:35.197Z,34.61
2023-07-18T13:12:37.030Z,34.24
2023-07-18T13:17:38.741Z,34.52
2023-07-18T13:22:40.509Z,34.65
2023-07-18T13:27:42.571Z,35.45
2023-07-18T13:32:45.230Z,35.71
2023-07-18T13:37:47.029Z,35.13
2023-07-18T13:42:48.720Z,35.10
2023-07-18T13:47:50.461Z,34.20
2023-07-18T13:52:53.009Z,35.21
2023-07-18T13:57:55.074Z,34.08
2023-07-18T14:02:56.807Z,35.13
2023-07-18T14:07:58.645Z,33.37
2023-07-18T14:13:00.316Z,34.88
2023-07-18T14:18:01.994Z,34.19
2023-07-18T14:23:04.032Z,34.97
2023-07-18T14:28:05.766Z,34.70
2023-07-18T14:33:07.672Z,34.71
2023-07-18T14:38:09.449Z,35.15
2023-07-18T14:43:11.667Z,34.65
2023-07-18T14:48:13.459Z,33.85
2023-07-18T14:53:15.681Z,34.03
2023-07-18T14:58:17.554Z,34.55
2023-07-18T15:03:19.471Z,34.30
2023-07-18T15:08:21.531Z,34.16
2023-07-18T15:13:23.222Z,33.79
2023-07-18T15:18:24.908Z,33.29
2023-07-18T15:23:26.576Z,34.08
2023-07-18T15:28:28.344Z,33.91
2023-07-18T15:33:30.123Z,33.95
2023-07-18T15:38:31.897Z,32.67
2023-07-18T15:43:33.643Z,33.73
2023-07-18T15:48:35.608Z,33.20
2023-07-18T15:53:37.693Z,34.98
2023-07-18T15:58:39.376Z,35.04
2023-07-18T16:03:41.275Z,35.00
2023-07-18T16:08:43.121Z,36.10
2023-07-18T16:13:47.023Z,35.08
2023-07-18T16:18:53.210Z,34.88
2023-07-18T16:23:54.874Z,35.60
2023-07-18T16:28:56.587Z,35.53
2023-07-18T16:33:58.315Z,36.13
2023-07-18T16:39:00.125Z,36.15
2023-07-18T16:44:01.835Z,36.23
2023-07-18T16:49:04.866Z,36.73
2023-07-18T16:54:06.593Z,37.08
2023-07-18T16:59:08.571Z,37.60
2023-07-18T17:04:10.485Z,36.80
2023-07-18T17:09:12.209Z,37.15
2023-07-18T17:14:13.929Z,39.78
2023-07-18T17:19:16.072Z,38.18
2023-07-18T17:24:18.168Z,37.85
2023-07-18T17:29:20.507Z,36.25
2023-07-18T17:34:22.176Z,36.60
2023-07-18T17:39:24.712Z,35.87
2023-07-18T17:44:26.616Z,36.17
2023-07-18T17:49:28.438Z,38.32
2023-07-18T17:54:30.209Z,37.62
2023-07-18T17:59:31.888Z,37.37
2023-07-18T18:04:33.664Z,37.58
2023-07-18T18:09:35.502Z,37.58
2023-07-18T18:14:38.333Z,37.04
2023-07-18T18:19:39.979Z,38.72
2023-07-18T18:24:42.326Z,41.32
2023-07-18T18:29:43.999Z,39.85
2023-07-18T18:35:00.989Z,39.96
2023-07-18T18:40:08.016Z,40.71
2023-07-18T18:45:10.041Z,43.68
2023-07-18T18:50:12.158Z,45.69
2023-07-18T18:55:20.412Z,44.77
2023-07-18T19:00:23.252Z,45.14
2023-07-18T19:05:25.016Z,47.54
2023-07-18T19:10:27.826Z,44.33
2023-07-18T19:15:29.762Z,45.37
2023-07-18T19:20:31.442Z,44.52
2023-07-18T19:25:33.260Z,44.77
2023-07-18T19:30:35.225Z,48.74
2023-07-18T19:35:37.319Z,45.10
2023-07-18T19:40:39.081Z,46.51
2023-07-18T19:45:40.909Z,43.89
2023-07-18T19:50:44.244Z,46.16
2023-07-18T19:55:46.452Z,45.39
2023-07-18T20:00:48.170Z,45.72
2023-07-18T20:05:49.982Z,46.69
2023-07-18T20:10:51.714Z,49.64
2023-07-18T20:15:55.402Z,46.13
2023-07-18T20:20:57.060Z,43.42
2023-07-18T20:26:00.051Z,47.29
2023-07-18T20:31:01.751Z,47.67
2023-07-18T20:36:03.627Z,47.14
2023-07-18T20:41:08.434Z,47.06
2023-07-18T20:46:14.088Z,47.78
2023-07-18T20:51:15.852Z,46.63
2023-07-18T20:56:17.617Z,47.79
2023-07-18T21:01:19.883Z,47.25
2023-07-18T21:06:21.928Z,48.24
2023-07-18T21:11:23.697Z,49.96
2023-07-18T21:16:25.580Z,49.55
2023-07-18T21:21:27.421Z,49.28
2023-07-18T21:26:29.373Z,50.33
2023-07-18T21:31:31.167Z,48.79
2023-07-18T21:36:32.932Z,46.42
2023-07-18T21:41:35.096Z,46.99
2023-07-18T21:46:36.882Z,49.51
2023-07-18T21:51:42.366Z,47.29
2023-07-18T21:56:44.196Z,49.18
2023-07-18T22:01:46.489Z,47.40
2023-07-18T22:06:48.332Z,48.56
2023-07-18T22:11:52.790Z,48.25
2023-07-18T22:16:54.530Z,47.14
2023-07-18T22:21:57.951Z,48.49
2023-07-18T22:26:59.661Z,50.65
2023-07-18T22:32:01.418Z,49.22
2023-07-18T22:37:03.190Z,52.12
2023-07-18T22:42:19.486Z,50.19
2023-07-18T22:47:21.210Z,50.24
2023-07-18T22:52:23.068Z,49.97
2023-07-18T22:57:24.767Z,50.78
2023-07-18T23:02:26.689Z,50.03
2023-07-18T23:07:28.411Z,49.04
2023-07-18T23:12:30.183Z,50.87
2023-07-18T23:17:31.873Z,49.23
2023-07-18T23:22:33.593Z,51.71
2023-07-18T23:27:35.339Z,51.28
2023-07-18T23:32:37.102Z,51.33
2023-07-18T23:37:38.959Z,49.96
2023-07-18T23:42:40.669Z,50.29
2023-07-18T23:47:42.380Z,51.36
2023-07-18T23:52:44.080Z,49.33
2023-07-18T23:57:45.839Z,50.51
